Time;durP1;ratioP1;P1;durP2;ratioP2;P2;SDS_P1;SDS_P2;PMS_P1;PMS_P2;Temp;Humidity;BMP_temperature;BMP_pressure;BME280_temperature;BME280_humidity;BME280_pressure;Samples;Min_cycle;Max_cycle;Signal;HPM_P1;HPM_P2
2021/01/01 00:01:32;;;;;;;64.63;30.55;;;;;;;;;;5073657;28;20008;-72
2021/01/01 00:03:57;;;;;;;55.25;29.15;;;;;;;;;;5073279;28;20416;-72
2021/01/01 00:06:22;;;;;;;51.92;27.63;;;;;;;;;;5073936;28;20027;-72
2021/01/01 00:08:48;;;;;;;54.65;26.60;;;;;;;;;;5073514;28;20055;-73
2021/01/01 00:11:14;;;;;;;46.20;23.48;;;;;;;;;;5073504;28;20186;-72
2021/01/01 00:13:40;;;;;;;55.00;23.83;;;;;;;;;;5073325;28;20019;-72
2021/01/01 00:16:05;;;;;;;44.97;21.88;;;;;;;;;;5073275;28;20020;-72
2021/01/01 00:18:31;;;;;;;41.75;21.52;;;;;;;;;;5037953;28;20415;-72
2021/01/01 00:20:56;;;;;;;43.70;21.42;;;;;;;;;;5057129;28;20021;-72
2021/01/01 00:23:21;;;;;;;42.15;21.40;;;;;;;;;;5055394;28;20397;-72
2021/01/01 00:25:47;;;;;;;44.63;20.42;;;;;;;;;;5073107;28;20070;-72
2021/01/01 00:28:12;;;;;;;46.58;21.90;;;;;;;;;;5055532;28;20024;-72
2021/01/01 00:30:38;;;;;;;46.22;22.02;;;;;;;;;;5073102;28;20012;-72
2021/01/01 00:33:03;;;;;;;46.05;22.75;;;;;;;;;;5055448;28;20102;-71
2021/01/01 00:35:28;;;;;;;41.13;22.73;;;;;;;;;;5054976;28;20110;-72
2021/01/01 00:37:54;;;;;;;44.85;23.52;;;;;;;;;;5055085;28;20421;-72
2021/01/01 00:40:19;;;;;;;46.40;21.95;;;;;;;;;;5055263;28;20020;-72
2021/01/01 00:42:45;;;;;;;41.50;22.70;;;;;;;;;;5054986;28;20420;-73
2021/01/01 00:45:10;;;;;;;41.00;22.52;;;;;;;;;;5055018;28;20032;-73
2021/01/01 00:47:36;;;;;;;41.10;21.42;;;;;;;;;;5054252;28;20017;-71
2021/01/01 00:50:01;;;;;;;41.75;21.23;;;;;;;;;;5054906;28;20032;-72
2021/01/01 00:52:27;;;;;;;43.83;21.50;;;;;;;;;;5055094;28;20457;-72
2021/01/01 00:54:52;;;;;;;42.08;21.38;;;;;;;;;;5055077;28;20017;-72
2021/01/01 00:57:17;;;;;;;43.45;22.60;;;;;;;;;;5072825;28;20359;-72
2021/01/01 00:59:43;;;;;;;48.22;22.77;;;;;;;;;;5072286;28;20527;-72
2021/01/01 01:02:08;;;;;;;47.42;22.77;;;;;;;;;;5072620;28;20024;-71
2021/01/01 01:04:34;;;;;;;40.50;22.10;;;;;;;;;;5072579;28;20056;-73
2021/01/01 01:06:59;;;;;;;45.92;22.20;;;;;;;;;;5054716;28;20029;-72
2021/01/01 01:09:25;;;;;;;40.03;20.15;;;;;;;;;;5072703;28;20028;-72
2021/01/01 01:11:50;;;;;;;45.70;20.42;;;;;;;;;;5072490;28;20028;-72
2021/01/01 01:14:16;;;;;;;44.13;21.92;;;;;;;;;;5054788;28;20385;-72
2021/01/01 01:16:41;;;;;;;37.08;20.58;;;;;;;;;;5072441;28;20040;-72
2021/01/01 01:19:07;;;;;;;36.80;19.80;;;;;;;;;;5053946;28;20013;-71
2021/01/01 01:21:32;;;;;;;34.92;19.50;;;;;;;;;;5037610;28;20115;-72
2021/01/01 01:23:57;;;;;;;40.03;20.50;;;;;;;;;;5072359;28;20385;-72
2021/01/01 01:26:23;;;;;;;42.53;21.27;;;;;;;;;;5071957;28;20458;-72
2021/01/01 01:28:48;;;;;;;44.28;22.38;;;;;;;;;;5054580;28;20042;-72
2021/01/01 01:31:14;;;;;;;45.00;20.92;;;;;;;;;;5054709;28;20026;-72
2021/01/01 01:33:39;;;;;;;42.53;20.95;;;;;;;;;;5054078;28;20025;-71
2021/01/01 01:36:05;;;;;;;42.35;22.92;;;;;;;;;;5054424;28;20074;-72
2021/01/01 01:38:30;;;;;;;44.65;22.45;;;;;;;;;;5054460;28;20431;-72
2021/01/01 01:40:56;;;;;;;44.67;21.42;;;;;;;;;;5054463;28;20020;-72
2021/01/01 01:43:23;;;;;;;39.30;20.17;;;;;;;;;;5072320;28;20502;-72
2021/01/01 01:45:48;;;;;;;42.47;20.45;;;;;;;;;;5072106;28;20040;-72
2021/01/01 01:48:21;;;;;;;40.85;20.98;;;;;;;;;;5053757;28;20063;-71
2021/01/01 01:50:47;;;;;;;38.22;20.25;;;;;;;;;;5072206;28;20065;-71
2021/01/01 01:53:13;;;;;;;40.65;20.70;;;;;;;;;;5037669;28;20016;-72
2021/01/01 01:55:38;;;;;;;40.63;20.35;;;;;;;;;;5037590;28;20020;-72
2021/01/01 01:58:04;;;;;;;43.10;20.60;;;;;;;;;;5072017;28;20066;-72
2021/01/01 02:00:48;;;;;;;42.28;21.42;;;;;;;;;;5072148;28;20048;-72
2021/01/01 02:03:15;;;;;;;43.58;21.52;;;;;;;;;;5072028;28;20035;-72
2021/01/01 02:05:41;;;;;;;38.50;21.08;;;;;;;;;;5054196;28;20151;-72
2021/01/01 02:08:06;;;;;;;40.13;20.98;;;;;;;;;;5054352;28;20054;-72
2021/01/01 02:10:32;;;;;;;43.47;21.60;;;;;;;;;;5054122;28;20099;-72
2021/01/01 02:12:57;;;;;;;36.67;20.50;;;;;;;;;;5054209;28;20499;-72
2021/01/01 02:17:58;;;;;;;40.55;22.05;;;;;;;;;;5153725;22;20040;-72
2021/01/01 02:20:23;;;;;;;41.47;22.73;;;;;;;;;;5075434;28;20111;-71
2021/01/01 02:22:49;;;;;;;52.38;21.65;;;;;;;;;;5092249;28;20043;-72
2021/01/01 02:25:15;;;;;;;41.95;21.58;;;;;;;;;;5091919;28;20392;-72
2021/01/01 02:27:40;;;;;;;39.42;20.52;;;;;;;;;;5091900;28;20016;-72
2021/01/01 02:30:07;;;;;;;39.75;20.95;;;;;;;;;;5056864;28;20069;-71
2021/01/01 02:32:32;;;;;;;47.63;22.10;;;;;;;;;;5073815;28;20047;-72
2021/01/01 02:34:58;;;;;;;41.70;22.70;;;;;;;;;;5057123;28;20480;-71
2021/01/01 02:37:23;;;;;;;48.33;23.27;;;;;;;;;;5057804;28;20016;-71
2021/01/01 02:39:49;;;;;;;45.42;21.17;;;;;;;;;;5095266;28;20024;-72
2021/01/01 02:42:14;;;;;;;43.78;22.13;;;;;;;;;;5095416;28;20020;-72
2021/01/01 02:44:40;;;;;;;46.67;23.05;;;;;;;;;;5095113;28;20008;-71
2021/01/01 02:47:05;;;;;;;45.10;21.90;;;;;;;;;;5059979;28;20130;-71
2021/01/01 02:49:31;;;;;;;49.33;22.60;;;;;;;;;;5077148;28;20028;-71
2021/01/01 02:51:57;;;;;;;43.03;21.90;;;;;;;;;;5095136;28;20385;-71
2021/01/01 02:54:22;;;;;;;42.30;21.98;;;;;;;;;;5077050;28;20020;-71
2021/01/01 02:56:47;;;;;;;45.83;23.42;;;;;;;;;;5095012;28;20016;-71
2021/01/01 02:59:13;;;;;;;42.13;22.58;;;;;;;;;;5060224;28;20480;-71
2021/01/01 03:01:39;;;;;;;40.90;21.88;;;;;;;;;;5076613;28;20023;-72
2021/01/01 03:04:04;;;;;;;43.22;22.42;;;;;;;;;;5076717;28;20388;-72
2021/01/01 03:06:30;;;;;;;41.63;21.55;;;;;;;;;;5076985;28;20103;-71
2021/01/01 03:08:55;;;;;;;47.78;21.00;;;;;;;;;;5077010;28;20027;-72
2021/01/01 03:11:20;;;;;;;43.80;22.25;;;;;;;;;;5094809;28;20020;-71
2021/01/01 03:13:46;;;;;;;40.03;21.60;;;;;;;;;;5076628;28;20418;-71
2021/01/01 03:35:40;;;;;;;48.60;22.23;;;;;;;;;;5189272;22;20044;-71
2021/01/01 03:38:06;;;;;;;45.90;20.90;;;;;;;;;;5076231;28;20476;-71
2021/01/01 03:40:31;;;;;;;44.67;21.45;;;;;;;;;;5076498;28;20065;-71
2021/01/01 03:42:56;;;;;;;45.75;21.63;;;;;;;;;;5094389;28;20103;-72
2021/01/01 03:45:22;;;;;;;40.67;20.90;;;;;;;;;;5094195;28;20028;-71
2021/01/01 03:47:50;;;;;;;41.30;20.85;;;;;;;;;;5093257;28;20047;-71
2021/01/01 03:50:16;;;;;;;42.03;21.60;;;;;;;;;;5076288;28;20049;-72
2021/01/01 03:52:41;;;;;;;41.30;21.52;;;;;;;;;;5094185;28;20024;-71
2021/01/01 03:55:07;;;;;;;41.20;21.20;;;;;;;;;;5094226;28;20055;-71
2021/01/01 03:57:32;;;;;;;41.03;20.38;;;;;;;;;;5094090;28;20022;-72
2021/01/01 03:59:58;;;;;;;39.03;21.05;;;;;;;;;;5075729;28;20384;-70
2021/01/01 04:02:23;;;;;;;41.42;21.35;;;;;;;;;;5075914;28;20085;-72
2021/01/01 04:04:49;;;;;;;36.53;19.42;;;;;;;;;;5076001;28;20418;-72
2021/01/01 04:07:14;;;;;;;41.45;19.95;;;;;;;;;;5093896;28;20495;-72
2021/01/01 04:09:40;;;;;;;36.70;19.55;;;;;;;;;;5093960;28;20028;-72
2021/01/01 04:12:05;;;;;;;37.78;19.73;;;;;;;;;;5075627;28;20008;-72
2021/01/01 04:14:31;;;;;;;45.13;21.48;;;;;;;;;;5093812;28;20053;-71
2021/01/01 04:46:17;;;;;;;40.47;19.23;;;;;;;;;;5066815;26;20060;-72
2021/01/01 04:48:43;;;;;;;39.72;19.98;;;;;;;;;;5072287;28;20363;-72
2021/01/01 04:51:09;;;;;;;39.28;19.65;;;;;;;;;;5073162;28;20056;-72
2021/01/01 04:53:37;;;;;;;38.80;20.10;;;;;;;;;;5055100;28;20047;-71
2021/01/01 04:56:03;;;;;;;37.90;18.65;;;;;;;;;;5054729;28;20028;-71
2021/01/01 04:58:29;;;;;;;39.97;19.30;;;;;;;;;;5054928;28;20020;-71
2021/01/01 05:00:54;;;;;;;37.38;18.33;;;;;;;;;;5054178;28;20016;-71
2021/01/01 05:03:20;;;;;;;41.50;18.48;;;;;;;;;;5054794;28;20434;-72
2021/01/01 05:05:47;;;;;;;38.55;18.92;;;;;;;;;;5054551;28;20027;-71
2021/01/01 05:08:13;;;;;;;37.50;18.48;;;;;;;;;;5054974;28;20020;-72
2021/01/01 05:10:38;;;;;;;34.80;17.45;;;;;;;;;;5054836;28;20361;-71
2021/01/01 05:13:09;;;;;;;36.47;19.30;;;;;;;;;;5054682;28;20025;-71
2021/01/01 05:15:35;;;;;;;36.35;18.70;;;;;;;;;;5072216;28;20035;-72
2021/01/01 05:18:00;;;;;;;33.55;17.98;;;;;;;;;;5071867;28;20024;-72
2021/01/01 05:20:29;;;;;;;38.33;18.83;;;;;;;;;;5054679;28;20477;-72
2021/01/01 05:22:57;;;;;;;32.50;17.93;;;;;;;;;;5054980;28;20078;-72
2021/01/01 05:25:23;;;;;;;34.42;17.00;;;;;;;;;;5072526;28;20649;-72
2021/01/01 05:27:49;;;;;;;39.53;18.33;;;;;;;;;;5072219;28;20025;-71
2021/01/01 05:30:16;;;;;;;49.97;20.48;;;;;;;;;;5072513;28;20541;-72
2021/01/01 05:32:50;;;;;;;51.00;22.60;;;;;;;;;;5054633;28;20016;-71
2021/01/01 05:35:24;;;;;;;50.25;21.15;;;;;;;;;;5054618;28;20377;-72
2021/01/01 05:37:50;;;;;;;46.53;20.45;;;;;;;;;;5054385;28;20016;-71
2021/01/01 05:40:16;;;;;;;45.53;21.02;;;;;;;;;;5072410;28;20017;-71
2021/01/01 05:42:41;;;;;;;46.00;20.30;;;;;;;;;;5054289;28;20116;-71
2021/01/01 05:45:16;;;;;;;42.85;18.48;;;;;;;;;;5062286;28;20132;-72
2021/01/01 05:47:41;;;;;;;42.08;19.55;;;;;;;;;;5033553;28;20381;-71
2021/01/01 05:50:08;;;;;;;38.95;18.17;;;;;;;;;;5052459;28;20111;-72
2021/01/01 05:52:33;;;;;;;37.58;18.60;;;;;;;;;;5034550;28;20074;-71
2021/01/01 05:54:59;;;;;;;38.00;19.58;;;;;;;;;;5052136;28;20021;-71
2021/01/01 05:57:35;;;;;;;39.10;17.88;;;;;;;;;;5034395;28;20025;-71
2021/01/01 06:00:03;;;;;;;39.75;20.15;;;;;;;;;;5051962;28;20018;-72
2021/01/01 06:02:32;;;;;;;41.60;19.75;;;;;;;;;;5052116;28;20029;-71
2021/01/01 06:04:57;;;;;;;38.87;19.13;;;;;;;;;;5052192;28;20013;-71
2021/01/01 06:07:24;;;;;;;39.60;18.38;;;;;;;;;;5034285;28;20381;-71
2021/01/01 06:09:51;;;;;;;36.90;19.38;;;;;;;;;;5033960;28;20025;-72
2021/01/01 06:12:25;;;;;;;36.35;17.60;;;;;;;;;;5054301;28;20074;-71
2021/01/01 06:14:55;;;;;;;38.92;18.58;;;;;;;;;;5038029;28;20032;-72
2021/01/01 06:17:21;;;;;;;39.28;16.98;;;;;;;;;;5056046;28;20100;-72
2021/01/01 06:19:46;;;;;;;37.33;17.83;;;;;;;;;;5057150;28;20496;-72
2021/01/01 06:22:16;;;;;;;38.88;19.67;;;;;;;;;;5037634;28;20025;-71
2021/01/01 06:24:42;;;;;;;41.25;20.10;;;;;;;;;;5021406;28;20041;-71
2021/01/01 06:27:08;;;;;;;36.63;17.95;;;;;;;;;;5021416;28;20024;-72
2021/01/01 06:29:35;;;;;;;41.95;20.00;;;;;;;;;;5055528;28;20017;-72
2021/01/01 06:32:03;;;;;;;36.65;18.35;;;;;;;;;;5055404;28;20028;-72
2021/01/01 06:34:29;;;;;;;37.03;19.38;;;;;;;;;;5055653;28;20087;-72
2021/01/01 06:36:55;;;;;;;39.72;19.17;;;;;;;;;;5037298;28;20470;-71
2021/01/01 06:39:35;;;;;;;49.10;23.25;;;;;;;;;;5055690;28;20058;-72
2021/01/01 06:42:00;;;;;;;;;;;;;;;;;;5037677;28;20103;-71
2021/01/01 06:44:35;;;;;;;33.45;17.58;;;;;;;;;;5059445;28;20002;-71
2021/01/01 06:47:00;;;;;;;35.42;17.60;;;;;;;;;;5074591;28;20013;-72
2021/01/01 06:49:35;;;;;;;34.63;17.80;;;;;;;;;;5057279;28;20074;-71
2021/01/01 06:52:10;;;;;;;47.20;23.33;;;;;;;;;;5075048;28;20376;-72
2021/01/01 06:54:52;;;;;;;42.67;22.60;;;;;;;;;;5075298;28;20013;-70
2021/01/01 06:57:17;;;;;;;45.05;20.33;;;;;;;;;;5057164;28;20062;-71
2021/01/01 06:59:43;;;;;;;34.63;17.27;;;;;;;;;;5056799;28;20126;-70
2021/01/01 07:02:16;;;;;;;33.30;17.08;;;;;;;;;;5074874;28;20082;-72
2021/01/01 07:04:46;;;;;;;31.33;16.58;;;;;;;;;;5075015;28;20021;-71
2021/01/01 07:07:31;;;;;;;31.05;15.77;;;;;;;;;;5074963;28;20042;-72
2021/01/01 07:09:56;;;;;;;28.50;15.55;;;;;;;;;;5059753;28;20016;-72
2021/01/01 07:12:22;;;;;;;35.70;15.75;;;;;;;;;;5074607;28;20012;-72
2021/01/01 07:14:47;;;;;;;31.10;15.90;;;;;;;;;;5056826;28;20380;-74
2021/01/01 07:17:13;;;;;;;32.25;16.02;;;;;;;;;;5074263;28;20099;-72
2021/01/01 07:19:38;;;;;;;31.63;17.13;;;;;;;;;;5056557;28;20488;-71
2021/01/01 07:22:03;;;;;;;31.00;15.73;;;;;;;;;;5056428;28;20021;-72
2021/01/01 07:24:29;;;;;;;31.73;15.20;;;;;;;;;;5073752;28;20016;-71
2021/01/01 07:26:55;;;;;;;33.33;16.63;;;;;;;;;;5056547;28;20021;-70
2021/01/01 07:29:21;;;;;;;28.35;15.43;;;;;;;;;;5074630;28;20016;-72
2021/01/01 07:31:47;;;;;;;30.95;16.20;;;;;;;;;;5074197;28;20103;-73
2021/01/01 07:34:12;;;;;;;28.33;14.38;;;;;;;;;;5074475;28;20458;-73
2021/01/01 07:36:37;;;;;;;26.52;14.75;;;;;;;;;;5056391;28;20063;-72
2021/01/01 07:39:04;;;;;;;28.08;14.05;;;;;;;;;;5039814;28;20385;-73
2021/01/01 07:41:29;;;;;;;26.67;14.30;;;;;;;;;;5056505;28;20074;-73
2021/01/01 07:43:55;;;;;;;26.30;13.52;;;;;;;;;;5056025;28;20032;-73
2021/01/01 07:46:20;;;;;;;27.60;13.68;;;;;;;;;;5073901;28;20075;-73
2021/01/01 07:48:52;;;;;;;24.52;13.30;;;;;;;;;;5055522;28;20485;-73
2021/01/01 07:51:19;;;;;;;27.08;12.88;;;;;;;;;;5074112;28;20032;-73
2021/01/01 07:53:44;;;;;;;28.58;12.65;;;;;;;;;;5073691;28;20373;-73
2021/01/01 07:56:09;;;;;;;20.27;11.70;;;;;;;;;;5056130;28;20016;-72
2021/01/01 07:58:35;;;;;;;22.98;11.18;;;;;;;;;;5039056;28;20024;-73
2021/01/01 08:01:02;;;;;;;21.85;11.82;;;;;;;;;;5073952;28;20017;-72
2021/01/01 08:03:28;;;;;;;22.88;11.70;;;;;;;;;;5073610;28;20042;-73
2021/01/01 08:05:54;;;;;;;18.67;11.25;;;;;;;;;;5073566;28;20016;-73
2021/01/01 08:08:20;;;;;;;19.23;11.27;;;;;;;;;;5055674;28;20443;-73
2021/01/01 08:10:46;;;;;;;19.55;11.20;;;;;;;;;;5073411;28;20085;-73
2021/01/01 08:13:12;;;;;;;22.13;11.68;;;;;;;;;;5055662;28;20016;-72
2021/01/01 08:15:38;;;;;;;18.92;11.30;;;;;;;;;;5074056;28;20063;-72
2021/01/01 08:18:08;;;;;;;22.23;12.13;;;;;;;;;;5074920;28;20381;-73
2021/01/01 08:20:35;;;;;;;21.42;11.68;;;;;;;;;;5055698;28;20020;-73
2021/01/01 08:23:04;;;;;;;22.95;11.57;;;;;;;;;;5055400;28;20025;-73
2021/01/01 08:25:29;;;;;;;22.92;10.88;;;;;;;;;;5055398;28;20028;-72
2021/01/01 08:27:56;;;;;;;17.95;10.13;;;;;;;;;;5072956;28;20385;-73
2021/01/01 08:30:22;;;;;;;26.08;11.88;;;;;;;;;;5073290;28;20017;-73
2021/01/01 08:32:49;;;;;;;17.83;11.15;;;;;;;;;;5055306;28;20032;-73
2021/01/01 08:35:15;;;;;;;14.48;9.25;;;;;;;;;;5072899;28;20138;-73
2021/01/01 08:37:41;;;;;;;15.52;9.48;;;;;;;;;;5073013;28;20028;-72
2021/01/01 08:40:08;;;;;;;20.95;11.05;;;;;;;;;;5073021;28;20017;-72
2021/01/01 08:42:35;;;;;;;20.55;11.57;;;;;;;;;;5055121;28;20035;-73
2021/01/01 08:45:03;;;;;;;24.55;12.07;;;;;;;;;;5046264;28;20055;-73
2021/01/01 08:47:39;;;;;;;15.60;9.48;;;;;;;;;;5052363;28;20021;-74
2021/01/01 08:50:17;;;;;;;16.55;9.77;;;;;;;;;;5052851;28;20009;-73
2021/01/01 08:52:44;;;;;;;15.60;8.88;;;;;;;;;;5018645;28;20363;-72
2021/01/01 08:55:11;;;;;;;15.68;9.10;;;;;;;;;;5035239;28;20024;-73
2021/01/01 08:57:37;;;;;;;14.68;9.07;;;;;;;;;;5052886;28;20013;-72
2021/01/01 09:00:04;;;;;;;18.38;11.07;;;;;;;;;;5034751;28;20025;-73
2021/01/01 09:02:32;;;;;;;15.25;9.57;;;;;;;;;;5035055;28;20020;-73
2021/01/01 09:05:00;;;;;;;14.20;8.17;;;;;;;;;;5018507;28;20052;-73
2021/01/01 09:07:25;;;;;;;19.85;9.18;;;;;;;;;;5034778;28;20021;-72
2021/01/01 09:09:52;;;;;;;15.43;9.48;;;;;;;;;;5052452;28;20021;-73
2021/01/01 09:12:19;;;;;;;15.43;9.13;;;;;;;;;;5052705;28;20033;-73
2021/01/01 09:14:48;;;;;;;17.42;9.73;;;;;;;;;;5052458;28;20470;-72
2021/01/01 09:17:14;;;;;;;15.77;10.03;;;;;;;;;;5034157;28;20104;-73
2021/01/01 09:19:39;;;;;;;17.38;9.90;;;;;;;;;;5052493;28;20408;-72
2021/01/01 09:22:15;;;;;;;16.58;9.68;;;;;;;;;;5017805;28;20028;-71
2021/01/01 09:24:40;;;;;;;21.08;10.80;;;;;;;;;;5052514;28;20359;-71
2021/01/01 09:27:06;;;;;;;18.73;10.35;;;;;;;;;;5052482;28;20021;-72
2021/01/01 09:29:32;;;;;;;18.05;8.88;;;;;;;;;;5052531;28;20020;-72
2021/01/01 09:31:57;;;;;;;18.85;9.38;;;;;;;;;;5052199;28;20219;-72
2021/01/01 09:34:23;;;;;;;17.15;10.05;;;;;;;;;;5052417;28;20389;-71
2021/01/01 09:36:48;;;;;;;25.00;12.73;;;;;;;;;;5034316;28;20150;-72
2021/01/01 09:39:13;;;;;;;18.52;10.68;;;;;;;;;;5052438;28;20028;-72
2021/01/01 09:41:39;;;;;;;21.48;11.55;;;;;;;;;;5052331;28;20028;-71
2021/01/01 09:44:05;;;;;;;22.05;10.23;;;;;;;;;;5017822;28;20174;-72
2021/01/01 09:46:30;;;;;;;17.17;9.40;;;;;;;;;;5035406;28;20048;-72
2021/01/01 09:48:56;;;;;;;17.80;10.93;;;;;;;;;;5037732;28;20163;-72
2021/01/01 09:51:21;;;;;;;19.27;11.32;;;;;;;;;;5056194;28;20025;-71
2021/01/01 09:53:47;;;;;;;19.90;11.25;;;;;;;;;;5056096;28;20389;-71
2021/01/01 09:56:12;;;;;;;17.55;10.02;;;;;;;;;;5038703;28;20080;-71
2021/01/01 09:58:38;;;;;;;24.92;11.15;;;;;;;;;;5038500;28;20104;-70
2021/01/01 10:01:03;;;;;;;19.63;11.77;;;;;;;;;;5056007;28;20025;-72
2021/01/01 10:03:28;;;;;;;18.65;10.45;;;;;;;;;;5038232;28;20021;-72
2021/01/01 10:05:54;;;;;;;19.70;10.50;;;;;;;;;;5037869;28;20481;-72
2021/01/01 10:08:20;;;;;;;18.23;10.73;;;;;;;;;;5056119;28;20048;-71
2021/01/01 10:10:45;;;;;;;22.88;10.82;;;;;;;;;;5037961;28;20048;-71
2021/01/01 10:13:11;;;;;;;20.73;12.40;;;;;;;;;;5038093;28;20021;-72
2021/01/01 10:20:42;;;;;;;22.98;11.45;;;;;;;;;;5053970;28;20503;-72
2021/01/01 10:23:08;;;;;;;22.33;11.75;;;;;;;;;;5055453;28;20028;-72
2021/01/01 10:25:33;;;;;;;20.02;11.25;;;;;;;;;;5037630;28;20032;-72
2021/01/01 10:27:58;;;;;;;20.48;11.80;;;;;;;;;;5055270;28;20008;-72
2021/01/01 10:30:24;;;;;;;17.90;10.55;;;;;;;;;;5037682;28;20107;-72
2021/01/01 10:32:49;;;;;;;17.50;10.80;;;;;;;;;;5055177;28;20067;-71
2021/01/01 10:35:15;;;;;;;19.38;10.45;;;;;;;;;;5037452;28;20021;-71
2021/01/01 10:37:40;;;;;;;19.95;11.65;;;;;;;;;;5037468;28;20031;-71
2021/01/01 10:40:06;;;;;;;23.13;12.40;;;;;;;;;;5037928;28;20025;-72
2021/01/01 10:42:31;;;;;;;21.35;11.55;;;;;;;;;;5020821;28;20025;-72
2021/01/01 10:44:57;;;;;;;24.63;13.77;;;;;;;;;;5055020;28;20477;-73
2021/01/01 10:47:22;;;;;;;21.08;12.77;;;;;;;;;;5054649;28;20021;-72
2021/01/01 10:49:48;;;;;;;28.67;13.57;;;;;;;;;;5054935;28;20432;-72
2021/01/01 10:52:13;;;;;;;25.35;12.38;;;;;;;;;;5055453;28;20477;-72
2021/01/01 10:54:39;;;;;;;25.48;12.82;;;;;;;;;;5055208;28;20039;-72
2021/01/01 10:57:04;;;;;;;21.90;10.23;;;;;;;;;;5055073;28;20017;-72
2021/01/01 10:59:30;;;;;;;22.67;11.20;;;;;;;;;;5053924;28;20025;-72
2021/01/01 11:01:57;;;;;;;25.25;13.63;;;;;;;;;;5054741;28;20017;-72
2021/01/01 11:04:22;;;;;;;20.77;11.77;;;;;;;;;;5037178;28;20470;-71
2021/01/01 11:06:48;;;;;;;18.45;10.85;;;;;;;;;;5054795;28;20079;-72
2021/01/01 11:09:13;;;;;;;21.63;12.07;;;;;;;;;;5036805;28;20044;-72
2021/01/01 11:11:40;;;;;;;22.55;11.77;;;;;;;;;;5054798;28;20066;-72
2021/01/01 11:14:13;;;;;;;22.63;12.05;;;;;;;;;;5036781;28;20025;-70
2021/01/01 12:26:44;;;;;;;13.80;7.32;;;;;;;;;;5033511;28;20108;-70
2021/01/01 12:29:10;;;;;;;15.20;7.85;;;;;;;;;;4999452;28;20510;-70
2021/01/01 12:31:36;;;;;;;15.80;7.22;;;;;;;;;;5015701;28;20021;-70
2021/01/01 12:34:01;;;;;;;13.38;7.63;;;;;;;;;;5015324;28;20490;-70
2021/01/01 12:36:27;;;;;;;16.08;8.20;;;;;;;;;;5015536;28;20033;-70
2021/01/01 12:38:52;;;;;;;20.17;9.20;;;;;;;;;;5033283;28;20009;-70
2021/01/01 12:41:17;;;;;;;16.45;7.85;;;;;;;;;;5033246;28;20025;-71
2021/01/01 12:43:43;;;;;;;16.83;8.45;;;;;;;;;;4998713;28;20029;-70
2021/01/01 12:46:09;;;;;;;20.55;10.18;;;;;;;;;;5015641;28;20021;-70
2021/01/01 12:48:35;;;;;;;19.60;10.25;;;;;;;;;;5032700;28;20385;-70
2021/01/01 12:51:00;;;;;;;21.08;10.48;;;;;;;;;;5015406;28;20022;-70
2021/01/01 12:53:25;;;;;;;23.73;9.52;;;;;;;;;;5033240;28;20029;-70
2021/01/01 12:55:51;;;;;;;16.98;8.23;;;;;;;;;;4998643;28;20018;-70
2021/01/01 12:58:16;;;;;;;17.48;10.27;;;;;;;;;;5015209;28;20087;-70
2021/01/01 13:00:42;;;;;;;15.88;9.27;;;;;;;;;;5015391;28;20021;-70
2021/01/01 13:03:08;;;;;;;17.33;9.38;;;;;;;;;;5015332;28;20027;-70
2021/01/01 13:05:34;;;;;;;15.75;8.20;;;;;;;;;;5032647;28;20029;-70
2021/01/01 13:08:01;;;;;;;19.92;11.05;;;;;;;;;;5032541;28;20028;-70
2021/01/01 13:10:26;;;;;;;22.92;9.88;;;;;;;;;;5015102;28;20024;-70
2021/01/01 13:12:52;;;;;;;19.80;10.35;;;;;;;;;;5014943;28;20009;-70
2021/01/01 13:15:17;;;;;;;20.17;10.55;;;;;;;;;;4998626;28;20022;-70
2021/01/01 13:17:43;;;;;;;24.25;11.80;;;;;;;;;;5031859;28;20017;-70
2021/01/01 13:20:09;;;;;;;20.38;11.48;;;;;;;;;;5045660;28;20049;-70
2021/01/01 13:22:34;;;;;;;21.75;10.60;;;;;;;;;;5051957;28;20107;-71
2021/01/01 13:24:59;;;;;;;24.73;10.90;;;;;;;;;;5018138;28;20029;-70
2021/01/01 13:27:26;;;;;;;24.80;10.93;;;;;;;;;;5052661;28;20009;-70
2021/01/01 13:29:52;;;;;;;23.13;10.70;;;;;;;;;;5052345;28;20067;-70
2021/01/01 13:32:17;;;;;;;20.48;10.40;;;;;;;;;;5052459;28;20032;-70
2021/01/01 13:34:43;;;;;;;22.00;11.43;;;;;;;;;;5052347;28;20029;-69
2021/01/01 13:37:08;;;;;;;20.70;11.23;;;;;;;;;;5052381;28;20017;-71
2021/01/01 13:39:33;;;;;;;24.52;12.38;;;;;;;;;;5034707;28;20395;-71
2021/01/01 13:41:59;;;;;;;29.20;12.65;;;;;;;;;;5034582;28;20071;-70
2021/01/01 13:44:24;;;;;;;22.02;10.48;;;;;;;;;;5052263;28;20452;-70
2021/01/01 13:46:50;;;;;;;20.60;11.45;;;;;;;;;;5051563;28;20024;-71
2021/01/01 13:49:15;;;;;;;25.02;13.23;;;;;;;;;;5052476;28;20035;-70
2021/01/01 13:51:41;;;;;;;24.27;12.45;;;;;;;;;;5052083;28;20021;-70
2021/01/01 13:54:06;;;;;;;22.40;13.07;;;;;;;;;;5034492;28;20092;-70
2021/01/01 13:56:32;;;;;;;23.08;11.93;;;;;;;;;;5034586;28;20017;-70
2021/01/01 13:58:57;;;;;;;27.45;13.30;;;;;;;;;;5034400;28;20014;-69
2021/01/01 14:01:24;;;;;;;26.17;12.40;;;;;;;;;;5052201;28;20033;-70
2021/01/01 14:03:49;;;;;;;27.83;13.73;;;;;;;;;;5034292;28;20033;-70
2021/01/01 14:06:15;;;;;;;29.75;13.48;;;;;;;;;;5034538;28;20017;-70
2021/01/01 14:08:40;;;;;;;28.20;13.18;;;;;;;;;;5052188;28;20053;-71
2021/01/01 14:11:07;;;;;;;31.40;14.52;;;;;;;;;;5034313;28;20070;-70
2021/01/01 14:13:32;;;;;;;27.45;14.00;;;;;;;;;;5034254;28;20424;-71
2021/01/01 14:15:57;;;;;;;38.22;16.65;;;;;;;;;;5051714;28;20013;-70
2021/01/01 14:18:23;;;;;;;34.00;14.95;;;;;;;;;;5051505;28;20056;-71
2021/01/01 14:20:48;;;;;;;31.95;16.02;;;;;;;;;;5035431;28;20052;-71
2021/01/01 14:23:14;;;;;;;32.30;15.90;;;;;;;;;;5018143;28;20136;-71
2021/01/01 14:25:41;;;;;;;33.92;15.90;;;;;;;;;;5052125;28;20032;-71
2021/01/01 14:28:07;;;;;;;35.22;16.55;;;;;;;;;;5052140;28;20021;-71
2021/01/01 14:30:36;;;;;;;30.90;18.25;;;;;;;;;;5034363;28;20032;-71
2021/01/01 14:33:02;;;;;;;38.88;19.33;;;;;;;;;;5035799;28;20025;-71
2021/01/01 14:35:27;;;;;;;35.15;17.63;;;;;;;;;;5055751;28;20101;-71
2021/01/01 14:37:53;;;;;;;44.90;21.55;;;;;;;;;;5037865;28;20028;-72
2021/01/01 14:40:18;;;;;;;41.92;20.90;;;;;;;;;;5055677;28;20091;-71
2021/01/01 14:42:44;;;;;;;47.42;21.58;;;;;;;;;;5037640;28;20448;-71
2021/01/01 14:45:09;;;;;;;36.50;19.60;;;;;;;;;;5037513;28;20017;-71
2021/01/01 14:47:35;;;;;;;46.55;22.60;;;;;;;;;;5036965;28;20087;-71
2021/01/01 14:50:01;;;;;;;45.20;23.50;;;;;;;;;;5055227;28;20025;-71
2021/01/01 14:52:26;;;;;;;38.05;21.30;;;;;;;;;;5055179;28;20043;-71
2021/01/01 14:54:52;;;;;;;37.35;19.35;;;;;;;;;;5037490;28;20513;-71
2021/01/01 14:57:17;;;;;;;40.58;18.75;;;;;;;;;;5037448;28;20052;-71
2021/01/01 14:59:42;;;;;;;37.72;19.05;;;;;;;;;;5036986;28;20070;-71
2021/01/01 15:02:08;;;;;;;43.60;19.65;;;;;;;;;;5055041;28;20013;-71
2021/01/01 15:04:34;;;;;;;37.03;18.75;;;;;;;;;;5037286;28;20033;-72
2021/01/01 15:06:59;;;;;;;45.00;17.38;;;;;;;;;;5054963;28;20021;-71
2021/01/01 15:09:24;;;;;;;39.97;21.25;;;;;;;;;;5055099;28;20017;-71
2021/01/01 15:11:50;;;;;;;46.40;20.63;;;;;;;;;;5020395;28;20017;-71
2021/01/01 15:14:16;;;;;;;50.53;21.35;;;;;;;;;;5037108;28;20044;-71
2021/01/01 15:16:42;;;;;;;53.97;21.70;;;;;;;;;;5020155;28;20055;-71
2021/01/01 15:19:07;;;;;;;48.03;22.15;;;;;;;;;;5036271;28;20874;-71
2021/01/01 15:21:33;;;;;;;90.82;33.50;;;;;;;;;;5054848;28;20029;-70
2021/01/01 15:23:59;;;;;;;47.35;21.92;;;;;;;;;;5036643;28;20035;-71
2021/01/01 15:26:27;;;;;;;36.67;19.08;;;;;;;;;;5054672;28;20083;-70
2021/01/01 15:28:52;;;;;;;38.72;20.58;;;;;;;;;;5054774;28;20109;-70
2021/01/01 15:31:18;;;;;;;38.45;18.70;;;;;;;;;;5054834;28;20103;-71
2021/01/01 15:33:43;;;;;;;36.63;18.85;;;;;;;;;;5054240;28;20064;-71
2021/01/01 15:36:13;;;;;;;42.40;19.38;;;;;;;;;;5036658;28;20028;-70
2021/01/01 15:38:39;;;;;;;41.78;19.27;;;;;;;;;;5054726;28;20013;-71
2021/01/01 15:41:04;;;;;;;33.35;18.40;;;;;;;;;;5054249;28;20083;-71
2021/01/01 15:43:31;;;;;;;35.65;19.73;;;;;;;;;;5036354;28;20489;-71
2021/01/01 15:45:56;;;;;;;42.70;21.05;;;;;;;;;;5053439;28;20051;-70
2021/01/01 15:48:22;;;;;;;43.95;21.20;;;;;;;;;;5019115;28;20443;-71
2021/01/01 15:50:47;;;;;;;58.50;27.65;;;;;;;;;;5036345;28;20064;-71
2021/01/01 15:53:13;;;;;;;64.13;31.63;;;;;;;;;;5036277;28;20074;-70
2021/01/01 15:55:38;;;;;;;48.92;24.83;;;;;;;;;;5036317;28;20070;-71
2021/01/01 15:58:03;;;;;;;64.43;30.98;;;;;;;;;;5053619;28;20020;-70
2021/01/01 16:00:29;;;;;;;48.03;24.55;;;;;;;;;;5053998;28;20110;-71
2021/01/01 16:02:54;;;;;;;47.50;21.27;;;;;;;;;;5053827;28;20021;-71
2021/01/01 16:05:20;;;;;;;37.78;18.30;;;;;;;;;;5019591;28;20392;-71
2021/01/01 16:07:45;;;;;;;42.13;21.90;;;;;;;;;;5035801;28;20016;-70
2021/01/01 16:10:14;;;;;;;47.03;22.42;;;;;;;;;;5053925;28;20036;-71
2021/01/01 16:12:39;;;;;;;49.10;22.50;;;;;;;;;;5053863;28;20017;-71
2021/01/01 16:15:05;;;;;;;47.53;23.90;;;;;;;;;;5053438;28;20025;-71
2021/01/01 16:17:30;;;;;;;43.85;22.73;;;;;;;;;;5053030;28;20478;-71
2021/01/01 16:19:56;;;;;;;44.92;22.98;;;;;;;;;;5053171;28;20045;-70